createdAt,value
2023-10-12T00:01:24.952Z,100262.72
2023-10-12T00:04:06.942Z,100271.16
2023-10-12T00:06:37.667Z,100260.59
2023-10-12T00:09:17.467Z,100265.66
2023-10-12T00:11:57.860Z,100259.31
2023-10-12T00:14:32.587Z,100254.63
2023-10-12T00:17:00.129Z,100253.56
2023-10-12T00:19:27.456Z,100252.31
2023-10-12T00:22:00.185Z,100248.28
2023-10-12T00:24:31.325Z,100236.91
2023-10-12T00:26:58.807Z,100236.03
2023-10-12T00:29:25.839Z,100226.75
2023-10-12T00:31:56.250Z,100227.16
2023-10-12T00:34:24.064Z,100233.25
2023-10-12T00:36:53.071Z,100224.56
2023-10-12T00:39:22.602Z,100228.34
2023-10-12T00:41:54.592Z,100223.66
2023-10-12T00:44:27.228Z,100223.66
2023-10-12T00:46:56.744Z,100222.16
2023-10-12T00:49:27.251Z,100221.09
2023-10-12T00:52:08.137Z,100222.59
2023-10-12T00:54:38.474Z,100221.53
2023-10-12T00:57:09.887Z,100211.88
2023-10-12T00:59:40.103Z,100211.88
2023-10-12T01:02:17.544Z,100204.22
2023-10-12T01:04:54.076Z,100208.25
2023-10-12T01:07:25.746Z,100197.88
2023-10-12T01:10:05.681Z,100199.56
2023-10-12T01:12:33.588Z,100188.97
2023-10-12T01:15:09.893Z,100188.34
2023-10-12T01:17:36.788Z,100184.75
2023-10-12T01:20:17.761Z,100179.66
2023-10-12T01:22:44.775Z,100178.22
2023-10-12T01:25:20.167Z,100177.16
2023-10-12T01:27:48.130Z,100179.47
2023-10-12T01:30:18.159Z,100187.28
2023-10-12T01:32:44.830Z,100184.63
2023-10-12T01:35:14.335Z,100178.47
2023-10-12T01:37:56.433Z,100187.28
2023-10-12T01:40:25.543Z,100188.97
2023-10-12T01:42:52.283Z,100182.84
2023-10-12T01:45:20.399Z,100177.97
2023-10-12T01:47:56.377Z,100174.59
2023-10-12T01:50:27.623Z,100171.25
2023-10-12T01:52:57.012Z,100161.09
2023-10-12T01:55:29.697Z,100175.72
2023-10-12T01:57:57.599Z,100180.59
2023-10-12T02:00:44.613Z,100181.44
2023-10-12T02:03:18.867Z,100186.53
2023-10-12T02:06:00.494Z,100181.47
2023-10-12T02:08:33.311Z,100171.34
2023-10-12T02:11:18.944Z,100175.22
2023-10-12T02:13:51.538Z,100177.38
2023-10-12T02:16:31.374Z,100182.94
2023-10-12T02:19:00.086Z,100178.00
2023-10-12T02:21:27.086Z,100170.66
2023-10-12T02:23:54.077Z,100180.38
2023-10-12T02:26:40.470Z,100170.91
2023-10-12T02:29:08.949Z,100173.63
2023-10-12T02:31:40.333Z,100168.63
2023-10-12T02:34:12.903Z,100172.63
2023-10-12T02:36:39.673Z,100173.41
2023-10-12T02:39:15.792Z,100167.09
2023-10-12T02:41:50.444Z,100173.47
2023-10-12T02:44:19.518Z,100169.34
2023-10-12T02:47:04.966Z,100171.50
2023-10-12T02:49:38.196Z,100183.72
2023-10-12T02:52:08.790Z,100168.31
2023-10-12T02:54:50.111Z,100172.50
2023-10-12T02:57:22.068Z,100169.78
2023-10-12T02:59:57.684Z,100175.44
2023-10-12T03:02:32.739Z,100174.81
2023-10-12T03:05:01.763Z,100165.34
2023-10-12T03:07:28.869Z,100172.91
2023-10-12T03:10:00.273Z,100167.91
2023-10-12T03:12:33.056Z,100163.91
2023-10-12T03:15:01.785Z,100162.00
2023-10-12T03:17:28.952Z,100159.66
2023-10-12T03:19:56.172Z,100176.56
2023-10-12T03:22:35.549Z,100177.66
2023-10-12T03:25:20.310Z,100172.81
2023-10-12T03:27:51.739Z,100176.06
2023-10-12T03:30:18.959Z,100175.38
2023-10-12T03:32:45.544Z,100171.88
2023-10-12T03:35:14.078Z,100180.97
2023-10-12T03:37:54.209Z,100175.00
2023-10-12T03:40:40.451Z,100175.69
2023-10-12T03:43:25.500Z,100181.41
2023-10-12T03:46:17.148Z,100181.31
2023-10-12T03:48:49.556Z,100170.75
2023-10-12T03:51:16.600Z,100175.47
2023-10-12T03:54:04.410Z,100169.16
2023-10-12T03:56:39.138Z,100167.22
2023-10-12T03:59:08.985Z,100169.97
2023-10-12T04:01:41.300Z,100177.69
2023-10-12T04:04:31.397Z,100174.38
2023-10-12T04:07:00.931Z,100179.28
2023-10-12T04:09:52.143Z,100180.47
2023-10-12T04:12:20.029Z,100187.00
2023-10-12T04:14:53.862Z,100181.31
2023-10-12T04:17:26.857Z,100189.94
2023-10-12T04:20:06.282Z,100192.34
2023-10-12T04:22:46.630Z,100186.47
2023-10-12T04:25:14.002Z,100183.91
2023-10-12T04:27:50.919Z,100186.88
2023-10-12T04:30:32.817Z,100196.56
2023-10-12T04:33:18.297Z,100190.25
2023-10-12T04:35:50.954Z,100195.09
2023-10-12T04:38:38.348Z,100187.94
2023-10-12T04:41:13.994Z,100187.31
2023-10-12T04:43:40.953Z,100180.97
2023-10-12T04:46:13.422Z,100205.88
2023-10-12T04:48:47.019Z,100201.66
2023-10-12T04:51:19.249Z,100208.41
2023-10-12T04:54:06.251Z,100205.03
2023-10-12T04:56:38.676Z,100215.78
2023-10-12T04:59:20.144Z,100211.13
2023-10-12T05:02:05.165Z,100209.03
2023-10-12T05:04:44.177Z,100215.38
2023-10-12T05:07:10.703Z,100215.16
2023-10-12T05:09:40.190Z,100223.16
2023-10-12T05:12:07.145Z,100214.31
2023-10-12T05:14:34.343Z,100211.13
2023-10-12T05:17:00.771Z,100222.94
2023-10-12T05:19:27.518Z,100218.97
2023-10-12T05:21:54.868Z,100221.72
2023-10-12T05:24:24.537Z,100213.06
2023-10-12T05:26:57.967Z,100221.06
2023-10-12T05:29:24.911Z,100245.13
2023-10-12T05:32:06.749Z,100245.34
2023-10-12T05:34:41.138Z,100257.38
2023-10-12T05:37:17.991Z,100249.75
2023-10-12T05:39:47.452Z,100257.38
2023-10-12T05:42:15.165Z,100251.03
2023-10-12T05:44:45.287Z,100261.97
2023-10-12T05:47:15.204Z,100269.13
2023-10-12T05:49:42.189Z,100262.59
2023-10-12T05:52:09.037Z,100273.34
2023-10-12T05:54:41.195Z,100270.59
2023-10-12T05:57:20.026Z,100272.34
2023-10-12T05:59:47.459Z,100284.81
2023-10-12T06:02:19.979Z,100288.56
2023-10-12T06:04:47.810Z,100292.78
2023-10-12T06:07:14.878Z,100305.00
2023-10-12T06:09:41.543Z,100312.81
2023-10-12T06:12:09.641Z,100303.50
2023-10-12T06:14:38.193Z,100312.16
2023-10-12T06:17:06.186Z,100322.28
2023-10-12T06:19:37.196Z,100329.03
2023-10-12T06:22:21.102Z,100336.84
2023-10-12T06:24:53.054Z,100346.34
2023-10-12T06:27:19.682Z,100347.59
2023-10-12T06:29:47.759Z,100352.69
2023-10-12T06:32:20.089Z,100366.81
2023-10-12T06:35:10.581Z,100372.31
2023-10-12T06:37:56.207Z,100378.22
2023-10-12T06:40:24.821Z,100381.00
2023-10-12T06:43:10.635Z,100381.41
2023-10-12T06:45:50.365Z,100387.34
2023-10-12T06:48:29.464Z,100385.22
2023-10-12T06:51:04.655Z,100387.34
2023-10-12T06:53:36.033Z,100384.22
2023-10-12T06:56:24.803Z,100392.81
2023-10-12T06:59:11.455Z,100402.53
2023-10-12T07:01:51.805Z,100408.84
2023-10-12T07:04:30.849Z,100417.72
2023-10-12T07:06:58.205Z,100416.88
2023-10-12T07:09:41.807Z,100422.34
2023-10-12T07:12:13.142Z,100427.00
2023-10-12T07:14:46.892Z,100434.19
2023-10-12T07:17:14.943Z,100449.78
2023-10-12T07:19:46.785Z,100455.91
2023-10-12T07:22:15.845Z,100467.72
2023-10-12T07:24:42.951Z,100470.88
2023-10-12T07:27:18.420Z,100469.16
2023-10-12T07:29:44.918Z,100474.25
2023-10-12T07:32:32.431Z,100474.22
2023-10-12T07:35:07.485Z,100486.03
2023-10-12T07:37:34.351Z,100488.78
2023-10-12T07:40:18.190Z,100482.44
2023-10-12T07:42:48.568Z,100478.84
2023-10-12T07:45:16.954Z,100480.09
2023-10-12T07:47:46.663Z,100483.41
2023-10-12T07:50:15.192Z,100486.59
2023-10-12T07:52:44.622Z,100481.09
2023-10-12T07:55:12.804Z,100482.78
2023-10-12T07:57:40.039Z,100495.00
2023-10-12T08:00:10.520Z,100497.50
2023-10-12T08:02:46.778Z,100498.53
2023-10-12T08:05:24.505Z,100502.97
2023-10-12T08:08:04.502Z,100501.25
2023-10-12T08:10:42.151Z,100508.44
2023-10-12T08:13:25.233Z,100495.38
2023-10-12T08:15:53.825Z,100480.66
2023-10-12T08:18:42.649Z,100486.16
2023-10-12T08:21:18.871Z,100480.47
2023-10-12T08:23:50.781Z,100477.31
2023-10-12T08:26:35.821Z,100466.59
2023-10-12T08:29:32.210Z,100444.22
2023-10-12T08:32:05.543Z,100486.63
2023-10-12T08:34:38.814Z,100510.03
2023-10-12T08:37:10.634Z,100505.41
2023-10-12T08:39:47.163Z,100515.13
2023-10-12T08:42:20.530Z,100517.25
2023-10-12T08:44:51.422Z,100519.34
2023-10-12T08:47:31.041Z,100516.44
2023-10-12T08:50:01.878Z,100525.94
2023-10-12T08:52:31.293Z,100534.59
2023-10-12T08:55:05.241Z,100536.91
2023-10-12T08:58:01.997Z,100539.19
2023-10-12T09:00:35.867Z,100548.28
2023-10-12T09:03:06.573Z,100542.56
2023-10-12T09:05:35.236Z,100541.66
2023-10-12T09:08:13.287Z,100550.53
2023-10-12T09:10:57.827Z,100546.75
2023-10-12T09:13:28.808Z,100548.03
2023-10-12T09:15:57.646Z,100545.47
2023-10-12T09:18:27.377Z,100548.03
2023-10-12T09:21:03.110Z,100552.09
2023-10-12T09:23:49.220Z,100547.44
2023-10-12T09:26:20.405Z,100547.66
2023-10-12T09:28:46.955Z,100542.59
2023-10-12T09:31:48.010Z,100546.41
2023-10-12T09:34:30.613Z,100547.69
2023-10-12T09:36:57.275Z,100565.63
2023-10-12T09:39:35.639Z,100571.28
2023-10-12T09:42:22.980Z,100570.41
2023-10-12T09:45:02.194Z,100577.50
2023-10-12T09:47:44.229Z,100578.50
2023-10-12T09:50:15.185Z,100579.56
2023-10-12T09:52:46.893Z,100574.47
2023-10-12T09:55:24.735Z,100578.09
2023-10-12T09:57:53.248Z,100579.50
2023-10-12T10:00:50.148Z,100583.19
2023-10-12T10:03:18.434Z,100583.94
2023-10-12T10:05:55.157Z,100567.78
2023-10-12T10:08:29.644Z,100581.72
2023-10-12T10:10:58.010Z,100588.22
2023-10-12T10:13:40.870Z,100586.16
2023-10-12T10:16:10.067Z,100583.03
2023-10-12T10:18:57.808Z,100590.47
2023-10-12T10:21:31.538Z,100589.03
2023-10-12T10:23:59.519Z,100592.81
2023-10-12T10:26:32.359Z,100587.34
2023-10-12T10:29:06.693Z,100582.28
2023-10-12T10:31:35.464Z,100576.78
2023-10-12T10:34:08.138Z,100574.50
2023-10-12T10:36:35.166Z,100570.56
2023-10-12T10:39:24.964Z,100574.03
2023-10-12T10:41:55.263Z,100590.38
2023-10-12T10:44:23.956Z,100599.50
2023-10-12T10:46:58.077Z,100609.81
2023-10-12T10:49:34.305Z,100617.44
2023-10-12T10:52:07.574Z,100625.03
2023-10-12T10:54:40.785Z,100624.34
2023-10-12T10:57:26.766Z,100607.19
2023-10-12T10:59:54.022Z,100611.06
2023-10-12T11:02:21.770Z,100613.81
2023-10-12T11:04:55.528Z,100609.09
2023-10-12T11:07:22.020Z,100612.88
2023-10-12T11:09:53.241Z,100622.31
2023-10-12T11:12:25.340Z,100613.91
2023-10-12T11:15:26.429Z,100622.47
2023-10-12T11:18:08.456Z,100625.38
2023-10-12T11:20:46.297Z,100624.16
2023-10-12T11:23:15.324Z,100632.91
2023-10-12T11:25:42.771Z,100620.63
2023-10-12T11:28:19.501Z,100624.00
2023-10-12T11:30:46.368Z,100623.63
2023-10-12T11:33:13.682Z,100633.59
2023-10-12T11:35:42.395Z,100643.63
2023-10-12T11:38:18.311Z,100641.06
2023-10-12T11:43:58.371Z,100645.78
2023-10-12T11:46:26.783Z,100646.09
2023-10-12T11:49:02.604Z,100652.66
2023-10-12T11:51:29.757Z,100649.13
2023-10-12T11:53:56.126Z,100653.84
2023-10-12T11:56:25.656Z,100652.66
2023-10-12T11:58:55.036Z,100653.50
2023-10-12T12:01:23.229Z,100654.72
2023-10-12T12:03:54.301Z,100655.31
2023-10-12T12:06:26.630Z,100657.53
2023-10-12T12:08:59.906Z,100656.78
2023-10-12T12:11:31.715Z,100656.34
2023-10-12T12:13:58.859Z,100658.47
2023-10-12T12:16:25.815Z,100661.69
2023-10-12T12:18:53.599Z,100656.34
2023-10-12T12:21:30.866Z,100656.94
2023-10-12T12:24:01.438Z,100644.72
2023-10-12T12:26:33.909Z,100661.09
2023-10-12T12:29:04.522Z,100659.63
2023-10-12T12:31:33.183Z,100658.78
2023-10-12T12:34:00.381Z,100663.94
2023-10-12T12:36:30.630Z,100664.28
2023-10-12T12:39:13.172Z,100664.97
2023-10-12T12:41:41.345Z,100673.06
2023-10-12T12:44:11.361Z,100673.16
2023-10-12T12:46:38.710Z,100669.44
2023-10-12T12:49:07.420Z,100667.47
2023-10-12T12:51:35.518Z,100671.59
2023-10-12T12:54:02.747Z,100670.97
2023-10-12T12:56:29.878Z,100672.66
2023-10-12T12:58:56.276Z,100679.09
2023-10-12T13:01:26.968Z,100682.41
2023-10-12T13:03:57.374Z,100686.00
2023-10-12T13:06:25.113Z,100686.19
2023-10-12T13:08:51.634Z,100692.03
2023-10-12T13:11:19.581Z,100692.41
2023-10-12T13:13:48.173Z,100697.88
2023-10-12T13:16:15.450Z,100699.22
2023-10-12T13:18:46.758Z,100692.59
2023-10-12T13:21:17.198Z,100690.91
2023-10-12T13:23:44.857Z,100685.31
2023-10-12T13:26:13.873Z,100683.63
2023-10-12T13:28:42.435Z,100680.41
2023-10-12T13:31:12.487Z,100684.25
2023-10-12T13:33:42.456Z,100684.06
2023-10-12T13:36:09.299Z,100682.72
2023-10-12T13:38:37.814Z,100683.19
2023-10-12T13:41:05.099Z,100684.09
2023-10-12T13:43:32.085Z,100695.25
2023-10-12T13:45:59.815Z,100693.44
2023-10-12T13:48:30.731Z,100692.00
2023-10-12T13:51:20.540Z,100693.31
2023-10-12T13:53:50.273Z,100690.72
2023-10-12T13:56:17.241Z,100684.13
2023-10-12T13:58:47.856Z,100692.88
2023-10-12T14:01:16.243Z,100681.13
2023-10-12T14:03:53.372Z,100697.09
2023-10-12T14:06:20.535Z,100688.94
2023-10-12T14:08:47.082Z,100694.50
2023-10-12T14:11:15.984Z,100698.41
2023-10-12T14:13:43.647Z,100696.56
2023-10-12T14:16:11.923Z,100702.75
2023-10-12T14:18:40.310Z,100699.38
2023-10-12T14:21:12.208Z,100703.59
2023-10-12T14:23:50.940Z,100706.53
2023-10-12T14:26:18.658Z,100706.66
2023-10-12T14:28:50.614Z,100703.91
2023-10-12T14:31:17.728Z,100707.13
2023-10-12T14:33:44.904Z,100709.00
2023-10-12T14:36:11.761Z,100698.38
2023-10-12T14:38:40.828Z,100713.88
2023-10-12T14:41:10.460Z,100709.72
2023-10-12T14:43:37.275Z,100701.81
2023-10-12T14:46:05.437Z,100704.19
2023-10-12T14:48:32.489Z,100697.78
2023-10-12T14:51:17.958Z,100702.66
2023-10-12T14:53:45.823Z,100712.78
2023-10-12T14:56:14.795Z,100713.53
2023-10-12T14:58:44.126Z,100713.81
2023-10-12T15:01:14.125Z,100715.81
2023-10-12T15:03:42.439Z,100718.44
2023-10-12T15:06:12.963Z,100713.25
2023-10-12T15:08:40.184Z,100712.22
2023-10-12T15:11:07.507Z,100719.75
2023-10-12T15:13:38.210Z,100714.94
2023-10-12T15:16:10.394Z,100722.31
2023-10-12T15:18:41.935Z,100728.25
2023-10-12T15:23:43.500Z,100728.34
2023-10-12T15:26:14.069Z,100732.47
2023-10-12T15:28:40.420Z,100728.06
2023-10-12T15:31:07.195Z,100725.22
2023-10-12T15:33:34.037Z,100731.47
2023-10-12T15:36:00.976Z,100727.78
2023-10-12T15:38:31.863Z,100730.31
2023-10-12T15:41:00.136Z,100738.63
2023-10-12T15:43:27.183Z,100738.25
2023-10-12T15:45:54.198Z,100727.78
2023-10-12T15:48:27.065Z,100735.31
2023-10-12T15:50:55.006Z,100735.22
2023-10-12T15:53:23.443Z,100741.63
2023-10-12T15:55:50.692Z,100753.69
2023-10-12T15:58:17.097Z,100739.25
2023-10-12T16:00:43.928Z,100743.13
2023-10-12T16:03:11.104Z,100741.44
2023-10-12T16:05:38.391Z,100746.91
2023-10-12T16:08:17.043Z,100754.25
2023-10-12T16:10:49.495Z,100747.72
2023-10-12T16:13:16.683Z,100755.09
2023-10-12T16:15:45.313Z,100752.00
2023-10-12T16:18:12.545Z,100752.91
2023-10-12T16:20:40.349Z,100758.19
2023-10-12T16:23:07.626Z,100749.81
2023-10-12T16:25:35.162Z,100743.41
2023-10-12T16:28:03.014Z,100739.16
2023-10-12T16:30:35.212Z,100749.63
2023-10-12T16:33:02.748Z,100748.09
2023-10-12T16:35:31.102Z,100749.22
2023-10-12T16:37:59.839Z,100744.06
2023-10-12T16:40:29.331Z,100752.81
2023-10-12T16:42:56.397Z,100762.34
2023-10-12T16:45:24.257Z,100755.84
2023-10-12T16:47:51.473Z,100751.50
2023-10-12T16:50:18.993Z,100749.78
2023-10-12T16:52:49.436Z,100756.09
2023-10-12T16:55:19.967Z,100762.59
2023-10-12T16:57:46.914Z,100765.81
2023-10-12T17:00:16.136Z,100770.06
2023-10-12T17:02:47.522Z,100778.94
2023-10-12T17:05:16.905Z,100782.78
2023-10-12T17:07:44.711Z,100778.00
2023-10-12T17:10:24.204Z,100786.13
2023-10-12T17:12:52.713Z,100787.53
2023-10-12T17:15:20.000Z,100783.72
2023-10-12T17:17:47.700Z,100781.06
2023-10-12T17:20:17.556Z,100785.91
2023-10-12T17:22:44.622Z,100788.03
2023-10-12T17:25:12.980Z,100796.97
2023-10-12T17:27:43.811Z,100806.63
2023-10-12T17:30:11.379Z,100806.16
2023-10-12T17:32:40.345Z,100815.19
2023-10-12T17:35:12.601Z,100818.00
2023-10-12T17:37:40.070Z,100820.03
2023-10-12T17:40:08.853Z,100824.84
2023-10-12T17:42:36.197Z,100827.41
2023-10-12T17:45:09.874Z,100815.81
2023-10-12T17:47:38.865Z,100819.44
2023-10-12T17:50:13.226Z,100810.28
2023-10-12T17:52:43.843Z,100812.19
2023-10-12T17:55:12.151Z,100816.13
2023-10-12T17:57:39.274Z,100816.69
2023-10-12T18:00:10.623Z,100814.44
2023-10-12T18:02:42.416Z,100821.88
2023-10-12T18:05:14.185Z,100826.75
2023-10-12T18:07:42.007Z,100820.97
2023-10-12T18:10:09.943Z,100827.69
2023-10-12T18:12:36.897Z,100834.03
2023-10-12T18:15:04.962Z,100833.44
2023-10-12T18:17:32.187Z,100836.53
2023-10-12T18:20:02.922Z,100833.69
2023-10-12T18:22:30.507Z,100841.00
2023-10-12T18:24:58.555Z,100843.09
2023-10-12T18:27:25.253Z,100845.47
2023-10-12T18:29:53.169Z,100854.19
2023-10-12T18:32:22.187Z,100848.25
2023-10-12T18:34:52.390Z,100843.63
2023-10-12T18:37:20.454Z,100851.97
2023-10-12T18:39:48.924Z,100850.25
2023-10-12T18:42:16.431Z,100849.22
2023-10-12T18:44:44.248Z,100841.41
2023-10-12T18:47:11.307Z,100838.34
2023-10-12T18:49:43.993Z,100843.78
2023-10-12T18:52:14.343Z,100851.97
2023-10-12T18:54:43.005Z,100837.66
2023-10-12T18:57:10.557Z,100849.91
2023-10-12T18:59:37.871Z,100853.31
2023-10-12T19:02:05.816Z,100857.06
2023-10-12T19:04:32.701Z,100848.88
2023-10-12T19:06:59.870Z,100849.72
2023-10-12T19:09:27.784Z,100853.97
2023-10-12T19:11:55.162Z,100852.44
2023-10-12T19:14:22.464Z,100854.31
2023-10-12T19:16:52.873Z,100849.38
2023-10-12T19:19:22.419Z,100851.22
2023-10-12T19:21:50.200Z,100861.41
2023-10-12T19:24:19.094Z,100864.28
2023-10-12T19:26:46.958Z,100858.00
2023-10-12T19:29:13.660Z,100860.09
2023-10-12T19:31:44.252Z,100859.41
2023-10-12T19:34:11.706Z,100858.22
2023-10-12T19:36:38.938Z,100864.81
2023-10-12T19:39:08.350Z,100859.03
2023-10-12T19:41:36.254Z,100867.19
2023-10-12T19:44:09.377Z,100859.91
2023-10-12T19:46:39.610Z,100863.81
2023-10-12T19:49:09.010Z,100873.16
2023-10-12T19:51:35.781Z,100871.63
2023-10-12T19:54:03.928Z,100869.41
2023-10-12T19:56:32.022Z,100863.78
2023-10-12T19:58:59.268Z,100867.53
2023-10-12T20:01:26.619Z,100867.88
2023-10-12T20:03:56.085Z,100867.13
2023-10-12T20:06:23.429Z,100868.66
2023-10-12T20:08:50.667Z,100870.50
2023-10-12T20:11:18.127Z,100875.50
2023-10-12T20:13:48.379Z,100876.63
2023-10-12T20:16:20.608Z,100877.66
2023-10-12T20:18:48.195Z,100881.56
2023-10-12T20:21:20.232Z,100887.91
2023-10-12T20:23:48.348Z,100886.66
2023-10-12T20:26:15.372Z,100885.00
2023-10-12T20:28:42.338Z,100880.78
2023-10-12T20:31:10.713Z,100878.38
2023-10-12T20:33:39.656Z,100886.22
2023-10-12T20:36:08.133Z,100881.84
2023-10-12T20:38:35.721Z,100881.31
2023-10-12T20:41:04.744Z,100885.06
2023-10-12T20:43:34.846Z,100873.69
2023-10-12T20:46:08.504Z,100869.78
2023-10-12T20:48:38.182Z,100872.00
2023-10-12T20:51:05.156Z,100871.16
2023-10-12T20:53:36.181Z,100864.84
2023-10-12T20:56:08.529Z,100868.75
2023-10-12T20:58:43.174Z,100875.75
2023-10-12T21:01:24.728Z,100869.97
2023-10-12T21:03:55.076Z,100872.00
2023-10-12T21:06:28.523Z,100875.72
2023-10-12T21:09:13.005Z,100875.38
2023-10-12T21:11:46.196Z,100866.53
2023-10-12T21:14:21.397Z,100872.84
2023-10-12T21:16:52.818Z,100874.72
2023-10-12T21:19:21.048Z,100878.63
2023-10-12T21:21:50.926Z,100868.25
2023-10-12T21:24:18.665Z,100868.75
2023-10-12T21:26:46.430Z,100874.72
2023-10-12T21:29:18.629Z,100866.38
2023-10-12T21:31:51.303Z,100866.53
2023-10-12T21:34:27.567Z,100857.34
2023-10-12T21:36:54.225Z,100866.03
2023-10-12T21:39:41.993Z,100865.50
2023-10-12T21:42:12.576Z,100859.72
2023-10-12T21:44:41.887Z,100861.09
2023-10-12T21:47:10.938Z,100850.84
2023-10-12T21:49:38.661Z,100847.16
2023-10-12T21:52:06.157Z,100853.63
2023-10-12T21:54:37.060Z,100850.72
2023-10-12T21:57:09.755Z,100852.25
2023-10-12T21:59:36.914Z,100855.81
2023-10-12T22:02:15.450Z,100866.22
2023-10-12T22:05:01.797Z,100869.06
2023-10-12T22:07:46.802Z,100862.97
2023-10-12T22:10:14.208Z,100867.72
2023-10-12T22:12:47.119Z,100869.25
2023-10-12T22:15:24.673Z,100867.03
2023-10-12T22:18:00.969Z,100863.50
2023-10-12T22:20:29.136Z,100867.41
2023-10-12T22:22:58.883Z,100863.00
2023-10-12T22:25:28.029Z,100848.53
2023-10-12T22:27:54.255Z,100866.38
2023-10-12T22:30:20.965Z,100852.78
2023-10-12T22:32:47.275Z,100859.44
2023-10-12T22:35:17.491Z,100856.53
2023-10-12T22:37:45.506Z,100865.19
2023-10-12T22:40:14.822Z,100865.53
2023-10-12T22:42:42.278Z,100867.56
2023-10-12T22:45:20.945Z,100862.81
2023-10-12T22:47:47.412Z,100867.22
2023-10-12T22:50:16.083Z,100868.94
2023-10-12T22:52:42.807Z,100881.00
2023-10-12T22:55:11.366Z,100893.13
2023-10-12T22:57:38.148Z,100882.94
2023-10-12T23:00:17.734Z,100881.56
2023-10-12T23:02:44.279Z,100886.84
2023-10-12T23:05:15.389Z,100885.66
2023-10-12T23:07:43.048Z,100883.13
2023-10-12T23:10:18.992Z,100883.63
2023-10-12T23:12:49.748Z,100887.72
2023-10-12T23:15:16.875Z,100895.06
2023-10-12T23:17:47.015Z,100897.25
2023-10-12T23:20:36.316Z,100893.19
2023-10-12T23:23:09.994Z,100891.81
2023-10-12T23:25:56.967Z,100896.75
2023-10-12T23:28:23.722Z,100894.88
2023-10-12T23:30:54.814Z,100891.47
2023-10-12T23:33:23.370Z,100892.13
2023-10-12T23:35:52.600Z,100893.31
2023-10-12T23:38:38.455Z,100885.50
2023-10-12T23:41:15.697Z,100888.22
2023-10-12T23:43:55.203Z,100882.94
2023-10-12T23:46:23.845Z,100883.25
2023-10-12T23:48:58.067Z,100875.97
2023-10-12T23:51:28.610Z,100882.25
2023-10-12T23:54:26.346Z,100880.56
2023-10-12T23:57:03.020Z,100873.41
2023-10-12T23:59:30.687Z,100875.28
